Time;durP1;ratioP1;P1;durP2;ratioP2;P2;SDS_P1;SDS_P2;PMS_P1;PMS_P2;Temp;Humidity;BMP_temperature;BMP_pressure;BME280_temperature;BME280_humidity;BME280_pressure;Samples;Min_cycle;Max_cycle;Signal;HPM_P1;HPM_P2
2021/10/12 00:00:11;;;;;;;71.30;67.80;;;11.30;99.90;;;;;;4421331;32;20174;-68
2021/10/12 00:02:42;;;;;;;78.33;74.33;;;11.30;99.90;;;;;;4422030;32;20161;-70
2021/10/12 00:05:13;;;;;;;71.07;67.67;;;11.30;99.90;;;;;;4421292;32;20659;-69
2021/10/12 00:07:40;;;;;;;79.53;75.83;;;11.30;99.90;;;;;;4422337;32;20163;-68
2021/10/12 00:10:09;;;;;;;79.17;75.23;;;11.30;99.90;;;;;;4421648;32;20441;-68
2021/10/12 00:12:36;;;;;;;82.70;78.40;;;11.30;99.90;;;;;;4422932;32;20181;-69
2021/10/12 00:15:03;;;;;;;85.10;80.67;;;11.20;99.90;;;;;;4421505;32;20192;-69
2021/10/12 00:17:35;;;;;;;76.50;72.53;;;11.20;99.90;;;;;;4423427;32;20483;-68
2021/10/12 00:20:05;;;;;;;80.80;77.20;;;11.20;99.90;;;;;;4423220;32;20147;-68
2021/10/12 00:22:32;;;;;;;83.57;79.47;;;11.20;99.90;;;;;;4423321;32;20147;-69
2021/10/12 00:24:59;;;;;;;84.20;80.07;;;11.20;99.90;;;;;;4420875;32;20195;-69
2021/10/12 00:27:27;;;;;;;83.30;78.80;;;11.20;99.90;;;;;;4421661;32;20144;-69
2021/10/12 00:29:54;;;;;;;80.33;76.67;;;11.20;99.90;;;;;;4422576;32;20164;-68
2021/10/12 00:32:21;;;;;;;80.50;76.50;;;11.20;99.90;;;;;;4423300;32;20570;-68
2021/10/12 00:34:48;;;;;;;83.50;79.50;;;11.10;99.90;;;;;;4421043;32;20181;-68
2021/10/12 00:37:17;;;;;;;85.43;80.90;;;11.10;99.90;;;;;;4421549;32;20167;-69
2021/10/12 00:39:47;;;;;;;84.10;80.07;;;11.10;99.90;;;;;;4421213;32;20156;-68
2021/10/12 00:42:14;;;;;;;86.70;81.90;;;11.00;99.90;;;;;;4421883;32;20147;-69
2021/10/12 00:44:41;;;;;;;84.03;79.87;;;11.00;99.90;;;;;;4421424;32;20209;-69
2021/10/12 00:47:09;;;;;;;87.43;83.30;;;11.00;99.90;;;;;;4422009;32;20209;-69
2021/10/12 00:49:36;;;;;;;81.20;77.00;;;11.00;99.90;;;;;;4420985;32;20155;-69
2021/10/12 00:52:04;;;;;;;84.13;80.17;;;11.00;99.90;;;;;;4421356;32;20174;-70
2021/10/12 00:54:33;;;;;;;88.40;84.27;;;11.00;99.90;;;;;;4421076;32;20163;-69
2021/10/12 00:57:01;;;;;;;88.43;83.90;;;10.90;99.90;;;;;;4422333;32;20151;-69
2021/10/12 00:59:28;;;;;;;82.60;78.40;;;10.90;99.90;;;;;;4419240;32;20182;-69
2021/10/12 01:01:55;;;;;;;78.90;74.97;;;10.90;99.90;;;;;;4421336;32;20158;-69
2021/10/12 01:04:23;;;;;;;81.00;77.00;;;11.00;99.90;;;;;;4420415;32;20186;-69
2021/10/12 01:06:50;;;;;;;82.17;78.27;;;11.00;99.90;;;;;;4421237;32;20466;-69
2021/10/12 01:09:17;;;;;;;83.80;79.90;;;11.00;99.90;;;;;;4420556;32;20182;-70
2021/10/12 01:11:48;;;;;;;83.90;79.73;;;10.90;99.90;;;;;;4422116;32;20147;-70
2021/10/12 01:14:15;;;;;;;84.60;80.60;;;10.80;99.90;;;;;;4421429;32;20575;-67
2021/10/12 01:16:42;;;;;;;81.63;77.33;;;10.80;99.90;;;;;;4421034;32;20162;-69
2021/10/12 01:19:13;;;;;;;82.27;78.17;;;10.80;99.90;;;;;;4421701;32;20478;-69
2021/10/12 01:21:44;;;;;;;77.57;73.33;;;10.80;99.90;;;;;;4422348;32;20751;-70
2021/10/12 01:24:12;;;;;;;88.13;84.10;;;10.70;99.90;;;;;;4421402;32;20189;-69
2021/10/12 01:26:41;;;;;;;90.70;86.83;;;10.70;99.90;;;;;;4420883;32;20491;-68
2021/10/12 01:29:09;;;;;;;87.53;83.37;;;10.70;99.90;;;;;;4420917;32;20154;-68
2021/10/12 01:31:36;;;;;;;91.50;87.13;;;10.70;99.90;;;;;;4421205;32;20169;-68
2021/10/12 01:34:12;;;;;;;82.27;78.57;;;10.70;99.90;;;;;;4421834;32;20197;-69
2021/10/12 01:36:39;;;;;;;87.93;83.90;;;10.70;99.90;;;;;;4421185;32;20166;-70
2021/10/12 01:39:07;;;;;;;87.30;83.40;;;10.70;99.90;;;;;;4421896;32;20155;-70
2021/10/12 01:41:36;;;;;;;87.40;83.50;;;10.70;99.90;;;;;;4420623;32;20146;-69
2021/10/12 01:44:03;;;;;;;94.80;90.47;;;10.70;99.90;;;;;;4422040;32;20174;-69
2021/10/12 01:46:32;;;;;;;102.13;97.33;;;10.70;99.90;;;;;;4422141;32;20174;-69
2021/10/12 01:48:59;;;;;;;92.07;87.47;;;10.70;99.90;;;;;;4423888;32;20164;-67
2021/10/12 01:51:26;;;;;;;95.53;91.23;;;10.70;99.90;;;;;;4423909;32;20177;-69
2021/10/12 01:53:53;;;;;;;86.63;82.87;;;10.70;99.90;;;;;;4423161;32;20153;-69
2021/10/12 01:56:22;;;;;;;97.90;93.43;;;10.70;99.90;;;;;;4424471;32;20139;-69
2021/10/12 01:58:52;;;;;;;91.03;86.93;;;10.80;99.90;;;;;;4423464;32;20207;-69
2021/10/12 02:01:20;;;;;;;95.93;91.73;;;10.80;99.90;;;;;;4423701;32;20139;-67
2021/10/12 02:03:48;;;;;;;102.57;98.03;;;10.80;99.90;;;;;;4423214;32;20169;-71
2021/10/12 02:06:17;;;;;;;95.77;91.60;;;10.80;99.90;;;;;;4423743;32;20159;-67
2021/10/12 02:08:45;;;;;;;96.83;92.43;;;10.80;99.90;;;;;;4423191;32;20175;-70
2021/10/12 02:11:12;;;;;;;86.90;83.10;;;10.70;99.90;;;;;;4423566;32;20154;-68
2021/10/12 02:13:41;;;;;;;87.47;83.17;;;10.70;99.90;;;;;;4422942;32;20189;-70
2021/10/12 02:16:08;;;;;;;87.30;83.00;;;10.70;99.90;;;;;;4423302;32;20151;-67
2021/10/12 02:18:35;;;;;;;91.37;86.97;;;10.70;99.90;;;;;;4425235;32;20162;-69
2021/10/12 02:21:02;;;;;;;84.40;80.00;;;10.70;99.90;;;;;;4422957;32;20154;-68
2021/10/12 02:23:30;;;;;;;83.70;79.83;;;10.70;99.90;;;;;;4424027;32;20143;-68
2021/10/12 02:25:57;;;;;;;95.77;91.77;;;10.70;99.90;;;;;;4423795;32;20145;-68
2021/10/12 02:28:24;;;;;;;90.70;86.60;;;10.70;99.90;;;;;;4423999;32;20162;-69
2021/10/12 02:31:00;;;;;;;83.60;79.60;;;10.70;99.90;;;;;;4421081;32;20158;-68
2021/10/12 02:33:27;;;;;;;96.30;91.40;;;10.80;99.90;;;;;;4417913;32;20151;-68
2021/10/12 02:35:55;;;;;;;99.03;94.00;;;10.80;99.90;;;;;;4423720;32;20170;-69
2021/10/12 02:38:22;;;;;;;90.77;86.53;;;10.80;99.90;;;;;;4407973;32;20163;-68
2021/10/12 02:40:51;;;;;;;86.57;82.50;;;10.80;99.90;;;;;;4407912;32;20152;-67
2021/10/12 02:43:19;;;;;;;101.47;97.07;;;10.80;99.90;;;;;;4418915;32;20175;-69
2021/10/12 02:45:46;;;;;;;97.90;93.43;;;10.80;99.90;;;;;;4423407;32;20159;-68
2021/10/12 02:48:17;;;;;;;96.17;91.73;;;10.90;99.90;;;;;;4423245;32;20481;-68
2021/10/12 02:50:44;;;;;;;100.37;95.70;;;10.90;99.90;;;;;;4424685;32;20421;-69
2021/10/12 02:53:13;;;;;;;95.03;90.53;;;10.90;99.90;;;;;;4411660;32;20251;-68
2021/10/12 02:55:40;;;;;;;100.50;96.13;;;10.90;99.90;;;;;;4423103;32;20217;-68
2021/10/12 02:58:07;;;;;;;90.70;86.53;;;10.90;99.90;;;;;;4420565;32;20151;-68
2021/10/12 03:00:35;;;;;;;97.47;92.63;;;10.80;99.90;;;;;;4409362;32;20662;-68
2021/10/12 03:03:02;;;;;;;95.30;90.83;;;10.80;99.90;;;;;;4412281;32;20225;-69
2021/10/12 03:05:30;;;;;;;99.03;94.73;;;10.70;99.90;;;;;;4414105;32;20179;-68
2021/10/12 03:08:04;;;;;;;106.40;101.37;;;10.60;99.90;;;;;;4418619;32;20155;-69
2021/10/12 03:10:31;;;;;;;106.43;101.50;;;10.80;99.90;;;;;;4417561;32;20163;-67
2021/10/12 03:12:58;;;;;;;113.83;108.93;;;10.70;99.90;;;;;;4410739;32;20515;-67
2021/10/12 03:15:25;;;;;;;120.77;115.43;;;10.80;99.90;;;;;;4408636;32;20174;-68
2021/10/12 03:17:51;;;;;;;117.60;112.03;;;10.80;99.90;;;;;;4419196;32;20219;-68
2021/10/12 03:20:20;;;;;;;119.37;113.77;;;10.80;99.90;;;;;;4422297;32;20158;-67
2021/10/12 03:22:49;;;;;;;106.90;102.30;;;10.70;99.90;;;;;;4419152;32;20223;-69
2021/10/12 03:25:15;;;;;;;113.60;108.27;;;10.80;99.90;;;;;;4421617;32;20624;-67
2021/10/12 03:27:42;;;;;;;111.47;106.57;;;10.80;99.90;;;;;;4422722;32;20152;-69
2021/10/12 03:30:10;;;;;;;105.33;100.53;;;10.70;99.90;;;;;;4422529;32;20550;-68
2021/10/12 03:32:37;;;;;;;107.43;102.73;;;10.80;99.90;;;;;;4421146;32;20151;-68
2021/10/12 03:35:05;;;;;;;110.20;104.83;;;10.80;99.90;;;;;;4416138;32;20163;-68
2021/10/12 03:37:35;;;;;;;109.33;104.47;;;10.70;99.90;;;;;;4413430;32;20163;-68
2021/10/12 03:40:04;;;;;;;118.37;112.80;;;10.70;99.90;;;;;;4416219;32;20199;-68
2021/10/12 03:42:31;;;;;;;102.77;98.20;;;10.70;99.90;;;;;;4417340;32;20163;-68
2021/10/12 03:44:58;;;;;;;109.03;103.73;;;10.70;99.90;;;;;;4398837;32;20639;-70
2021/10/12 03:47:25;;;;;;;104.70;99.80;;;10.70;99.90;;;;;;4407821;32;20159;-69
2021/10/12 03:49:52;;;;;;;106.37;101.77;;;10.60;99.90;;;;;;4407033;32;20143;-67
2021/10/12 03:52:18;;;;;;;114.70;109.60;;;10.70;99.90;;;;;;4407574;32;20503;-67
2021/10/12 03:54:45;;;;;;;129.73;123.60;;;10.60;99.90;;;;;;4404994;32;20174;-67
2021/10/12 03:57:13;;;;;;;142.60;135.97;;;10.60;99.90;;;;;;4401061;32;20226;-68
2021/10/12 03:59:40;;;;;;;136.17;130.10;;;10.60;99.90;;;;;;4398785;32;20236;-67
2021/10/12 04:02:07;;;;;;;134.67;128.67;;;10.50;99.90;;;;;;4401037;32;20168;-67
2021/10/12 04:04:34;;;;;;;142.70;136.00;;;10.50;99.90;;;;;;4407799;32;20165;-68
2021/10/12 04:07:01;;;;;;;134.60;128.40;;;10.50;99.90;;;;;;4404321;32;20201;-68
2021/10/12 04:09:27;;;;;;;147.80;140.73;;;10.50;99.90;;;;;;4407959;32;20162;-69
2021/10/12 04:11:54;;;;;;;142.80;135.77;;;10.50;99.90;;;;;;4406181;32;20231;-69
2021/10/12 04:14:22;;;;;;;128.63;122.63;;;10.50;99.90;;;;;;4406697;32;20243;-67
2021/10/12 04:16:49;;;;;;;130.50;124.87;;;10.50;99.90;;;;;;4406880;32;20144;-69
2021/10/12 04:19:16;;;;;;;127.30;121.40;;;10.50;99.90;;;;;;4407031;32;20147;-68
2021/10/12 04:21:45;;;;;;;140.87;134.53;;;10.50;99.90;;;;;;4406360;32;20226;-68
2021/10/12 04:24:12;;;;;;;135.93;129.97;;;10.50;99.90;;;;;;4406551;32;20155;-67
2021/10/12 04:26:40;;;;;;;128.93;122.90;;;10.60;99.90;;;;;;4406350;32;20160;-67
2021/10/12 04:29:07;;;;;;;124.77;119.00;;;10.60;99.90;;;;;;4405536;32;20148;-67
2021/10/12 04:31:36;;;;;;;127.33;121.33;;;10.60;99.90;;;;;;4406224;32;20140;-69
2021/10/12 04:34:04;;;;;;;126.13;119.87;;;10.60;99.90;;;;;;4406904;32;20183;-68
2021/10/12 04:36:31;;;;;;;122.77;116.90;;;10.60;99.90;;;;;;4406541;32;20685;-67
2021/10/12 04:38:59;;;;;;;121.90;116.07;;;10.60;99.90;;;;;;4405764;32;20154;-69
2021/10/12 04:41:30;;;;;;;126.57;121.13;;;10.60;99.90;;;;;;4406367;32;20147;-68
2021/10/12 04:43:57;;;;;;;120.67;114.60;;;10.70;99.90;;;;;;4405788;32;20171;-68
2021/10/12 04:46:24;;;;;;;115.50;110.17;;;10.70;99.90;;;;;;4406686;32;20171;-66
2021/10/12 04:48:52;;;;;;;124.87;118.77;;;10.70;99.90;;;;;;4407454;32;20654;-68
2021/10/12 04:51:19;;;;;;;118.33;112.77;;;10.70;99.90;;;;;;4406118;32;20214;-68
2021/10/12 04:53:45;;;;;;;110.30;105.23;;;10.70;99.90;;;;;;4405270;32;20218;-68
2021/10/12 04:56:13;;;;;;;121.50;116.03;;;10.70;99.90;;;;;;4406841;32;20167;-68
2021/10/12 04:58:40;;;;;;;108.03;102.80;;;10.70;99.90;;;;;;4402877;32;20160;-67
2021/10/12 05:01:10;;;;;;;104.63;99.73;;;10.70;99.90;;;;;;4402190;32;20210;-66
2021/10/12 05:03:36;;;;;;;105.67;100.93;;;10.80;99.90;;;;;;4401158;32;20203;-68
2021/10/12 05:06:10;;;;;;;114.07;108.50;;;10.80;99.90;;;;;;4394739;32;20957;-69
2021/10/12 05:08:37;;;;;;;131.13;124.63;;;10.90;99.90;;;;;;4393680;32;20359;-68
2021/10/12 05:11:04;;;;;;;135.33;128.77;;;10.90;99.90;;;;;;4393402;32;20182;-67
2021/10/12 05:13:31;;;;;;;119.03;113.17;;;10.90;99.90;;;;;;4403267;32;20156;-67
2021/10/12 05:15:59;;;;;;;117.63;111.77;;;10.90;99.90;;;;;;4405189;32;20158;-67
2021/10/12 05:18:31;;;;;;;120.33;114.53;;;10.90;99.90;;;;;;4405007;32;20593;-68
2021/10/12 05:21:01;;;;;;;123.07;117.10;;;10.90;99.90;;;;;;4404923;32;20152;-67
2021/10/12 05:23:29;;;;;;;117.97;112.27;;;10.90;99.90;;;;;;4403258;32;20248;-68
2021/10/12 05:25:58;;;;;;;113.17;107.57;;;10.90;99.90;;;;;;4405796;32;20178;-67
2021/10/12 05:28:26;;;;;;;120.10;114.47;;;11.00;99.90;;;;;;4405820;32;20156;-69
2021/10/12 05:30:53;;;;;;;117.83;112.50;;;11.00;99.90;;;;;;4404813;32;20163;-68
2021/10/12 05:33:21;;;;;;;117.47;112.17;;;11.00;99.90;;;;;;4404553;32;20143;-68
2021/10/12 05:35:49;;;;;;;121.80;116.10;;;11.00;99.90;;;;;;4394921;32;20297;-67
2021/10/12 05:38:51;;;;;;;125.03;118.73;;;11.00;99.90;;;;;;4396720;32;20572;-68
2021/10/12 05:41:18;;;;;;;118.90;113.40;;;11.10;99.90;;;;;;4397419;32;20230;-68
2021/10/12 05:43:46;;;;;;;112.87;107.57;;;11.10;99.90;;;;;;4397538;32;20225;-68
2021/10/12 05:46:13;;;;;;;114.40;109.07;;;11.10;99.90;;;;;;4396562;32;20706;-68
2021/10/12 05:48:40;;;;;;;120.07;114.37;;;11.10;99.90;;;;;;4394512;32;21258;-67
2021/10/12 05:51:08;;;;;;;114.73;109.47;;;11.10;99.90;;;;;;4394206;32;20230;-67
2021/10/12 05:53:43;;;;;;;118.73;113.10;;;11.10;99.90;;;;;;4396264;32;20155;-68
2021/10/12 05:56:15;;;;;;;111.53;106.20;;;11.10;99.90;;;;;;4396037;32;20257;-67
2021/10/12 05:58:48;;;;;;;117.97;112.57;;;11.10;99.90;;;;;;4395519;32;20148;-67
2021/10/12 06:01:15;;;;;;;124.50;118.93;;;11.10;99.90;;;;;;4395584;32;20163;-67
2021/10/12 06:03:42;;;;;;;113.77;108.00;;;11.10;99.90;;;;;;4394858;32;20579;-68
2021/10/12 06:06:11;;;;;;;116.83;111.47;;;11.10;99.90;;;;;;4383690;32;20302;-66
2021/10/12 06:08:47;;;;;;;127.23;121.30;;;11.10;99.90;;;;;;4393058;32;20251;-66
2021/10/12 06:11:19;;;;;;;121.40;115.70;;;11.10;99.90;;;;;;4392457;32;20814;-65
2021/10/12 06:13:48;;;;;;;116.37;110.93;;;11.20;99.90;;;;;;4393930;32;20253;-67
2021/10/12 06:16:15;;;;;;;120.13;114.13;;;11.20;99.90;;;;;;4391445;32;20278;-67
2021/10/12 06:18:42;;;;;;;115.53;110.17;;;11.20;99.90;;;;;;4392270;32;20177;-66
2021/10/12 06:21:09;;;;;;;120.23;114.43;;;11.20;99.90;;;;;;4393508;32;20227;-66
2021/10/12 06:23:42;;;;;;;124.07;117.97;;;11.20;99.90;;;;;;4393089;32;20235;-67
2021/10/12 06:26:10;;;;;;;111.37;105.80;;;11.30;99.90;;;;;;4392617;32;20587;-65
2021/10/12 06:28:38;;;;;;;117.97;112.13;;;11.20;99.90;;;;;;4393458;32;20170;-67
2021/10/12 06:31:06;;;;;;;124.07;118.47;;;11.30;99.90;;;;;;4393685;32;20152;-66
2021/10/12 06:33:34;;;;;;;108.47;103.50;;;11.30;99.90;;;;;;4407574;32;20159;-66
2021/10/12 06:36:03;;;;;;;108.63;102.97;;;11.30;99.90;;;;;;4408360;32;20190;-66
2021/10/12 06:38:32;;;;;;;116.10;110.53;;;11.30;99.90;;;;;;4407504;32;20155;-66
2021/10/12 06:41:03;;;;;;;99.87;95.00;;;11.30;99.90;;;;;;4405131;32;20212;-67
2021/10/12 06:43:34;;;;;;;107.47;102.20;;;11.40;99.90;;;;;;4407440;32;20147;-66
2021/10/12 06:46:01;;;;;;;113.93;108.17;;;11.40;99.90;;;;;;4407434;32;20167;-67
2021/10/12 06:48:28;;;;;;;117.03;111.23;;;11.50;99.90;;;;;;4406859;32;20210;-67
2021/10/12 06:51:04;;;;;;;109.50;104.07;;;11.60;99.90;;;;;;4407672;32;20498;-66
2021/10/12 06:53:46;;;;;;;108.47;102.80;;;11.60;99.90;;;;;;4405643;32;20173;-67
2021/10/12 06:56:13;;;;;;;101.47;96.43;;;11.60;99.90;;;;;;4406314;32;20234;-67
2021/10/12 06:58:43;;;;;;;108.63;103.63;;;11.60;99.90;;;;;;4406264;32;20151;-66
2021/10/12 07:01:10;;;;;;;102.13;97.07;;;11.60;99.90;;;;;;4408272;32;20144;-67
2021/10/12 07:03:37;;;;;;;104.73;98.70;;;11.60;99.90;;;;;;4400315;32;20186;-67
2021/10/12 07:06:04;;;;;;;103.97;98.87;;;11.60;99.90;;;;;;4389808;32;20223;-66
2021/10/12 07:08:31;;;;;;;105.30;100.30;;;11.70;99.90;;;;;;4387608;32;20151;-66
2021/10/12 07:10:58;;;;;;;102.60;97.70;;;11.70;99.90;;;;;;4389211;32;20595;-66
2021/10/12 07:13:28;;;;;;;107.80;102.40;;;11.70;99.90;;;;;;4382325;32;20176;-67
2021/10/12 07:15:59;;;;;;;102.73;97.70;;;11.70;99.90;;;;;;4388103;32;20175;-67
2021/10/12 07:18:29;;;;;;;95.37;90.27;;;11.80;99.90;;;;;;4389768;32;20247;-66
2021/10/12 07:20:56;;;;;;;101.23;95.50;;;11.90;99.90;;;;;;4390907;32;20148;-68
2021/10/12 07:23:23;;;;;;;104.27;99.13;;;12.10;99.90;;;;;;4390708;32;20175;-68
2021/10/12 07:25:50;;;;;;;99.90;95.00;;;12.20;99.90;;;;;;4391845;32;20172;-67
2021/10/12 07:28:17;;;;;;;93.53;88.73;;;12.30;99.90;;;;;;4389815;32;20505;-67
2021/10/12 07:30:44;;;;;;;98.50;93.20;;;12.40;99.90;;;;;;4390995;32;20202;-67
2021/10/12 07:33:15;;;;;;;93.00;88.17;;;12.50;99.90;;;;;;4392126;32;20166;-67
2021/10/12 07:35:43;;;;;;;82.63;78.17;;;12.60;99.90;;;;;;4391496;32;20203;-67
2021/10/12 07:38:12;;;;;;;85.67;81.27;;;12.70;99.90;;;;;;4391362;32;20487;-68
2021/10/12 07:40:41;;;;;;;87.27;82.37;;;12.80;99.90;;;;;;4390923;32;20145;-68
2021/10/12 07:43:10;;;;;;;78.33;74.30;;;12.80;99.90;;;;;;4383014;32;20153;-67
2021/10/12 07:45:37;;;;;;;91.93;86.93;;;12.80;99.90;;;;;;4391772;32;20160;-67
2021/10/12 07:48:06;;;;;;;85.13;80.30;;;12.80;99.90;;;;;;4386564;32;20148;-68
2021/10/12 07:50:35;;;;;;;83.53;78.47;;;12.80;99.90;;;;;;4391085;32;20152;-68
2021/10/12 07:53:03;;;;;;;72.40;68.13;;;13.00;99.90;;;;;;4391098;32;20151;-67
2021/10/12 07:55:34;;;;;;;82.27;77.77;;;13.30;99.90;;;;;;4312852;32;2499030;-67
2021/10/12 07:58:02;;;;;;;86.07;81.07;;;13.50;99.90;;;;;;4408117;32;20648;-65
2021/10/12 08:00:31;;;;;;;87.90;83.67;;;13.50;99.90;;;;;;4405587;32;20156;-68
2021/10/12 08:02:58;;;;;;;79.07;74.87;;;13.50;99.90;;;;;;4406713;32;20204;-67
2021/10/12 08:05:27;;;;;;;80.50;76.57;;;13.20;99.90;;;;;;4405061;32;20152;-67
2021/10/12 08:07:56;;;;;;;81.33;76.83;;;13.00;99.90;;;;;;4406615;32;20182;-67
2021/10/12 08:10:26;;;;;;;81.30;76.67;;;12.80;99.90;;;;;;4406982;32;20224;-65
2021/10/12 08:12:56;;;;;;;90.40;85.43;;;12.70;99.90;;;;;;4404816;32;20194;-66
2021/10/12 08:15:23;;;;;;;87.97;82.90;;;12.60;99.90;;;;;;4406164;32;20213;-66
2021/10/12 08:17:50;;;;;;;76.00;72.03;;;12.50;99.90;;;;;;4407163;32;20156;-66
2021/10/12 08:20:21;;;;;;;79.67;75.53;;;12.40;99.90;;;;;;4405410;32;20171;-65
2021/10/12 08:22:50;;;;;;;77.13;72.20;;;12.30;99.90;;;;;;4406450;32;20187;-66
2021/10/12 08:25:18;;;;;;;90.53;85.33;;;12.40;99.90;;;;;;4403760;32;20171;-66
2021/10/12 08:27:45;;;;;;;87.37;82.20;;;12.30;99.90;;;;;;4406079;32;20193;-65
2021/10/12 08:30:13;;;;;;;81.47;77.40;;;12.40;99.90;;;;;;4406165;32;20155;-68
2021/10/12 08:32:43;;;;;;;87.90;83.20;;;12.40;99.90;;;;;;4405814;32;20214;-67
2021/10/12 08:35:10;;;;;;;84.67;79.90;;;12.40;99.90;;;;;;4405043;32;20549;-67
2021/10/12 08:37:38;;;;;;;78.00;73.23;;;12.50;99.90;;;;;;4405845;32;20170;-67
2021/10/12 08:40:12;;;;;;;74.17;70.07;;;12.60;99.90;;;;;;4403718;32;20194;-67
2021/10/12 08:42:45;;;;;;;70.33;66.83;;;12.80;99.90;;;;;;4404503;32;20168;-67
2021/10/12 08:45:12;;;;;;;73.23;69.07;;;13.20;99.90;;;;;;4406260;32;20144;-67
2021/10/12 08:47:40;;;;;;;76.97;73.17;;;13.20;99.90;;;;;;4405200;32;20208;-67
2021/10/12 08:50:09;;;;;;;71.10;67.30;;;13.00;99.90;;;;;;4405825;32;20174;-67
2021/10/12 08:52:36;;;;;;;72.03;67.77;;;12.90;99.90;;;;;;4398797;32;20174;-67
2021/10/12 08:55:03;;;;;;;74.93;71.00;;;12.90;99.90;;;;;;4405586;32;20252;-67
2021/10/12 08:57:31;;;;;;;78.13;74.27;;;12.80;99.90;;;;;;4405153;32;20181;-66
2021/10/12 09:00:02;;;;;;;77.57;73.60;;;12.70;99.90;;;;;;4405296;32;20656;-67
2021/10/12 09:02:29;;;;;;;77.63;73.73;;;12.70;99.90;;;;;;4404878;32;20179;-67
2021/10/12 09:04:58;;;;;;;79.67;75.90;;;12.70;99.90;;;;;;4405350;32;20151;-67
2021/10/12 09:07:26;;;;;;;71.20;67.17;;;12.60;99.90;;;;;;4405147;32;20181;-67
2021/10/12 09:09:54;;;;;;;73.27;69.37;;;12.50;99.90;;;;;;4406959;32;20515;-67
2021/10/12 09:12:39;;;;;;;78.43;74.40;;;12.40;99.90;;;;;;4405875;32;20496;-67
2021/10/12 09:15:09;;;;;;;83.03;78.77;;;12.30;99.90;;;;;;4400997;32;20592;-67
2021/10/12 09:17:39;;;;;;;85.53;81.40;;;12.30;99.90;;;;;;4403654;32;20175;-67
2021/10/12 09:20:29;;;;;;;80.03;75.83;;;12.40;99.90;;;;;;4399354;32;20591;-67
2021/10/12 09:23:07;;;;;;;76.17;71.90;;;12.50;99.90;;;;;;4404539;32;20448;-67
2021/10/12 09:25:37;;;;;;;73.23;69.50;;;12.50;99.90;;;;;;4405159;32;20235;-68
2021/10/12 09:28:04;;;;;;;78.17;74.13;;;12.60;99.90;;;;;;4407123;32;20563;-67
2021/10/12 09:30:34;;;;;;;70.10;66.10;;;12.50;99.90;;;;;;4404510;32;20156;-67
2021/10/12 09:33:04;;;;;;;73.00;69.17;;;12.60;99.90;;;;;;4403720;32;20647;-68
2021/10/12 09:35:32;;;;;;;75.73;71.23;;;12.70;99.90;;;;;;4405535;32;20156;-68
2021/10/12 09:38:03;;;;;;;87.03;83.03;;;12.80;99.90;;;;;;4406071;32;20502;-68
2021/10/12 09:40:30;;;;;;;75.83;72.40;;;12.80;99.90;;;;;;4403963;32;20164;-68
2021/10/12 09:42:59;;;;;;;81.23;77.03;;;12.80;99.90;;;;;;4404584;32;20172;-68
2021/10/12 09:45:38;;;;;;;85.83;82.03;;;12.60;99.90;;;;;;4404754;32;20210;-68
2021/10/12 09:48:30;;;;;;;65.63;62.23;;;12.70;99.90;;;;;;4405018;32;20147;-68
2021/10/12 09:51:08;;;;;;;68.90;65.77;;;13.30;99.90;;;;;;4406214;32;20179;-68
2021/10/12 09:53:35;;;;;;;69.40;66.13;;;13.60;99.90;;;;;;4406332;32;20155;-68
2021/10/12 09:56:03;;;;;;;67.20;63.63;;;13.50;99.90;;;;;;4396889;32;20195;-68
2021/10/12 09:58:33;;;;;;;67.60;64.43;;;13.20;99.90;;;;;;4396025;32;20332;-68
2021/10/12 10:01:04;;;;;;;61.47;58.67;;;13.20;99.90;;;;;;4391190;32;20156;-68
2021/10/12 10:03:35;;;;;;;65.60;62.40;;;13.20;99.90;;;;;;4393316;32;20223;-68
2021/10/12 10:06:12;;;;;;;65.57;62.37;;;13.50;99.90;;;;;;4392041;32;20638;-69
2021/10/12 10:08:44;;;;;;;55.13;52.00;;;13.90;99.90;;;;;;4400065;32;20187;-69
2021/10/12 10:11:11;;;;;;;59.13;56.10;;;14.00;99.90;;;;;;4404094;32;20461;-68
2021/10/12 10:13:38;;;;;;;60.23;57.40;;;14.10;99.90;;;;;;4393493;32;20656;-69
2021/10/12 10:16:10;;;;;;;52.73;50.17;;;14.50;99.90;;;;;;4401085;32;20173;-69
2021/10/12 10:18:39;;;;;;;66.07;63.00;;;15.20;99.90;;;;;;4399560;32;20189;-68
2021/10/12 10:21:06;;;;;;;57.27;54.47;;;15.20;99.90;;;;;;4395044;32;20626;-68
2021/10/12 10:23:56;;;;;;;51.87;49.10;;;15.20;99.90;;;;;;4393321;32;20207;-69
2021/10/12 10:26:25;;;;;;;50.83;48.20;;;15.10;99.90;;;;;;4400954;32;20615;-68
2021/10/12 10:28:55;;;;;;;55.53;52.90;;;15.20;99.90;;;;;;4396737;32;20179;-68
2021/10/12 10:31:41;;;;;;;44.83;42.73;;;15.30;99.90;;;;;;4393918;32;20164;-69
2021/10/12 10:34:28;;;;;;;41.80;39.80;;;15.10;99.90;;;;;;4395065;32;20544;-69
2021/10/12 10:37:28;;;;;;;43.43;41.50;;;15.00;99.90;;;;;;4391127;32;20225;-68
2021/10/12 10:39:57;;;;;;;42.03;39.90;;;15.20;99.90;;;;;;4399298;32;20163;-68
2021/10/12 10:42:56;;;;;;;44.30;42.13;;;15.00;99.90;;;;;;4393349;32;20603;-69
2021/10/12 10:45:52;;;;;;;50.87;48.67;;;14.90;99.90;;;;;;4394086;32;20188;-69
2021/10/12 10:48:24;;;;;;;43.23;41.30;;;14.40;99.90;;;;;;4394657;32;20231;-69
2021/10/12 10:50:52;;;;;;;50.33;47.40;;;13.90;99.90;;;;;;4390422;32;20496;-68
2021/10/12 10:53:37;;;;;;;56.10;53.50;;;13.50;99.90;;;;;;4394953;32;20152;-68
2021/10/12 10:56:07;;;;;;;60.70;57.70;;;13.40;99.90;;;;;;4400768;32;20164;-67
2021/10/12 10:58:44;;;;;;;55.00;52.50;;;13.60;99.90;;;;;;4407175;32;20618;-68
2021/10/12 11:01:31;;;;;;;52.37;50.10;;;13.80;99.90;;;;;;4406627;32;20163;-68
2021/10/12 11:03:59;;;;;;;52.77;50.40;;;13.70;99.90;;;;;;4406264;32;20163;-68
2021/10/12 11:06:28;;;;;;;60.27;57.57;;;13.80;99.90;;;;;;4407063;32;20171;-68
2021/10/12 11:09:00;;;;;;;54.90;52.60;;;14.10;99.90;;;;;;4405739;32;20579;-68
2021/10/12 11:11:33;;;;;;;57.03;54.40;;;14.50;99.90;;;;;;4404222;32;20190;-67
2021/10/12 11:14:03;;;;;;;47.67;45.60;;;14.70;99.90;;;;;;4407036;32;20152;-69
2021/10/12 11:16:39;;;;;;;45.03;42.77;;;14.90;99.90;;;;;;4399800;32;20597;-68
2021/10/12 11:19:07;;;;;;;43.50;41.67;;;14.70;99.90;;;;;;4406669;32;20179;-68
2021/10/12 11:21:35;;;;;;;41.13;39.40;;;14.50;99.90;;;;;;4406053;32;20576;-68
2021/10/12 11:24:02;;;;;;;50.57;48.20;;;14.30;99.90;;;;;;4406228;32;20187;-68
2021/10/12 11:26:31;;;;;;;42.53;40.33;;;14.00;99.90;;;;;;4406320;32;20160;-69
2021/10/12 11:29:02;;;;;;;42.13;40.43;;;14.10;99.90;;;;;;4407197;32;20547;-68
2021/10/12 11:31:33;;;;;;;42.83;40.93;;;14.10;99.90;;;;;;4406525;32;20147;-68
2021/10/12 11:34:02;;;;;;;40.47;38.47;;;14.30;99.90;;;;;;4405474;32;20164;-68
2021/10/12 11:36:32;;;;;;;47.00;44.93;;;14.40;99.90;;;;;;4403679;32;20160;-68
2021/10/12 11:39:00;;;;;;;42.83;40.93;;;14.50;99.90;;;;;;4406535;32;20216;-69
2021/10/12 11:41:29;;;;;;;43.50;41.70;;;14.50;99.90;;;;;;4405516;32;20190;-68
2021/10/12 11:44:01;;;;;;;42.50;40.60;;;14.80;99.90;;;;;;4405595;32;20179;-68
2021/10/12 11:46:31;;;;;;;45.33;43.43;;;15.00;99.90;;;;;;4399712;32;20152;-67
2021/10/12 11:49:07;;;;;;;42.20;40.30;;;15.10;99.90;;;;;;4404451;32;20246;-68
2021/10/12 11:51:36;;;;;;;42.73;40.73;;;15.10;99.90;;;;;;4406383;32;20190;-68
2021/10/12 11:54:02;;;;;;;42.93;40.80;;;15.10;99.90;;;;;;4404120;32;20238;-70
2021/10/12 11:56:34;;;;;;;43.47;41.60;;;15.00;99.90;;;;;;4406249;32;20214;-68
2021/10/12 11:59:01;;;;;;;37.00;35.20;;;14.90;99.90;;;;;;4407570;32;20163;-66
2021/10/12 12:01:31;;;;;;;37.97;35.97;;;14.70;99.90;;;;;;4407501;32;20555;-67
2021/10/12 12:03:59;;;;;;;38.63;36.97;;;14.60;99.90;;;;;;4404950;32;20213;-69
2021/10/12 12:06:34;;;;;;;41.87;40.03;;;14.90;99.90;;;;;;4404802;32;20617;-69
2021/10/12 12:09:08;;;;;;;41.53;39.53;;;15.20;99.90;;;;;;4407389;32;20163;-67
2021/10/12 12:11:36;;;;;;;37.10;35.30;;;15.30;99.90;;;;;;4403510;32;20228;-69
2021/10/12 12:14:07;;;;;;;39.33;37.43;;;15.30;99.90;;;;;;4403613;32;20614;-69
2021/10/12 12:16:36;;;;;;;39.37;37.57;;;15.20;99.90;;;;;;4401969;32;20220;-67
2021/10/12 12:19:19;;;;;;;38.47;36.67;;;15.40;99.90;;;;;;4403929;32;20229;-67
2021/10/12 12:21:47;;;;;;;33.43;32.10;;;15.40;99.90;;;;;;4404041;32;20175;-67
2021/10/12 12:24:20;;;;;;;35.80;34.20;;;15.10;99.90;;;;;;4404663;32;20300;-68
2021/10/12 12:26:46;;;;;;;38.83;36.80;;;14.90;99.90;;;;;;4406757;32;20592;-67
2021/10/12 12:29:21;;;;;;;32.57;31.07;;;14.70;99.90;;;;;;4404289;32;20180;-66
2021/10/12 12:31:50;;;;;;;38.73;37.03;;;14.70;99.90;;;;;;4403531;32;20159;-68